createdAt,value
2018-01-10T00:01:41.642Z,7.02
2018-01-10T00:06:50.459Z,6.96
2018-01-10T00:11:52.588Z,7.17
2018-01-10T00:16:53.895Z,7.40
2018-01-10T00:21:55.995Z,7.56
2018-01-10T00:26:58.043Z,7.72
2018-01-10T00:31:59.374Z,7.80
2018-01-10T00:37:00.702Z,7.83
2018-01-10T00:42:02.023Z,7.89
2018-01-10T00:47:03.355Z,7.73
2018-01-10T00:52:04.985Z,7.72
2018-01-10T00:57:06.322Z,7.73
2018-01-10T01:02:07.687Z,7.87
2018-01-10T01:07:08.996Z,7.81
2018-01-10T01:12:10.327Z,7.79
2018-01-10T01:17:12.431Z,7.73
2018-01-10T01:22:14.494Z,7.40
2018-01-10T01:27:15.832Z,7.52
2018-01-10T01:32:17.882Z,7.66
2018-01-10T01:37:19.222Z,7.75
2018-01-10T01:42:21.267Z,7.79
2018-01-10T01:47:22.593Z,7.77
2018-01-10T01:52:23.951Z,7.74
2018-01-10T01:57:25.288Z,7.69
2018-01-10T02:02:26.639Z,7.73
2018-01-10T02:07:27.989Z,7.78
2018-01-10T02:12:30.074Z,7.78
2018-01-10T02:17:31.452Z,7.89
2018-01-10T02:22:32.818Z,7.98
2018-01-10T02:27:34.677Z,7.94
2018-01-10T02:32:36.737Z,8.03
2018-01-10T02:37:38.040Z,7.98
2018-01-10T02:42:39.356Z,7.82
2018-01-10T02:47:40.718Z,7.75
2018-01-10T02:52:42.045Z,7.56
2018-01-10T02:57:43.397Z,7.48
2018-01-10T03:02:44.727Z,7.48
2018-01-10T03:07:46.039Z,7.45
2018-01-10T03:12:47.357Z,7.39
2018-01-10T03:17:48.655Z,7.51
2018-01-10T03:22:49.998Z,7.34
2018-01-10T03:27:51.331Z,7.21
2018-01-10T03:32:59.491Z,7.24
2018-01-10T03:38:00.820Z,7.23
2018-01-10T03:43:02.154Z,7.17
2018-01-10T03:48:03.476Z,7.18
2018-01-10T03:53:05.578Z,7.18
2018-01-10T03:58:06.875Z,7.37
2018-01-10T04:03:08.274Z,7.43
2018-01-10T04:08:09.600Z,7.53
2018-01-10T04:13:10.916Z,7.70
2018-01-10T04:18:12.295Z,7.92
2018-01-10T04:23:13.642Z,7.87
2018-01-10T04:28:14.958Z,8.05
2018-01-10T04:33:16.275Z,8.17
2018-01-10T04:38:17.631Z,8.27
2018-01-10T04:43:18.964Z,8.30
2018-01-10T04:48:20.274Z,8.33
2018-01-10T04:53:22.338Z,8.43
2018-01-10T04:58:23.658Z,8.40
2018-01-10T05:03:25.993Z,8.41
2018-01-10T05:08:28.084Z,8.43
2018-01-10T05:13:29.428Z,8.63
2018-01-10T05:18:31.121Z,8.65
2018-01-10T05:23:32.408Z,8.71
2018-01-10T05:28:33.910Z,8.77
2018-01-10T05:33:36.026Z,8.80
2018-01-10T05:38:37.336Z,8.85
2018-01-10T05:43:38.892Z,8.77
2018-01-10T05:48:40.219Z,8.86
2018-01-10T05:53:41.565Z,8.89
2018-01-10T05:58:42.896Z,8.89
2018-01-10T06:03:45.020Z,8.90
2018-01-10T06:08:47.062Z,8.92
2018-01-10T06:13:48.440Z,8.98
2018-01-10T06:18:52.215Z,9.00
2018-01-10T06:23:53.622Z,9.00
2018-01-10T06:28:55.501Z,9.02
2018-01-10T06:33:56.827Z,9.10
2018-01-10T06:38:58.133Z,9.05
2018-01-10T06:44:00.199Z,9.04
2018-01-10T06:49:01.653Z,9.05
2018-01-10T06:54:04.107Z,9.06
2018-01-10T06:59:05.823Z,9.04
2018-01-10T07:04:07.900Z,9.08
2018-01-10T07:09:09.256Z,8.91
2018-01-10T07:14:10.564Z,8.76
2018-01-10T07:19:11.903Z,8.57
2018-01-10T07:24:14.016Z,8.40
2018-01-10T07:29:15.332Z,8.22
2018-01-10T07:34:16.693Z,8.03
2018-01-10T07:39:18.009Z,7.92
2018-01-10T07:44:19.370Z,7.93
2018-01-10T07:49:20.687Z,7.89
2018-01-10T07:54:22.043Z,7.91
2018-01-10T07:59:23.362Z,7.85
2018-01-10T08:04:25.430Z,8.04
2018-01-10T08:09:26.755Z,8.21
2018-01-10T08:14:28.836Z,8.34
2018-01-10T08:19:30.171Z,8.33
2018-01-10T08:24:31.559Z,8.33
2018-01-10T08:29:32.924Z,8.59
2018-01-10T08:34:35.067Z,8.71
2018-01-10T08:39:36.388Z,8.67
2018-01-10T08:44:37.708Z,8.61
2018-01-10T08:49:39.759Z,8.86
2018-01-10T08:54:41.113Z,8.98
2018-01-10T08:59:43.171Z,9.19
2018-01-10T09:04:44.472Z,9.42
2018-01-10T09:09:45.813Z,9.62
2018-01-10T09:14:47.142Z,9.79
2018-01-10T09:19:48.446Z,10.00
2018-01-10T09:24:49.764Z,10.11
2018-01-10T09:29:51.077Z,10.33
2018-01-10T09:34:52.416Z,10.38
2018-01-10T09:39:53.776Z,10.38
2018-01-10T09:44:55.077Z,10.56
2018-01-10T09:49:56.391Z,10.66
2018-01-10T09:54:57.731Z,10.66
2018-01-10T09:59:59.047Z,10.58
2018-01-10T10:05:00.393Z,10.58
2018-01-10T10:10:01.854Z,10.60
2018-01-10T10:15:03.412Z,10.57
2018-01-10T10:20:04.768Z,10.52
2018-01-10T10:25:06.820Z,10.48
2018-01-10T10:30:08.181Z,10.52
2018-01-10T10:35:09.516Z,10.64
2018-01-10T10:40:10.940Z,10.66
2018-01-10T10:45:13.003Z,10.77
2018-01-10T10:50:14.318Z,10.90
2018-01-10T10:55:15.639Z,11.06
2018-01-10T11:00:16.967Z,11.18
2018-01-10T11:05:27.762Z,11.45
2018-01-10T11:10:29.087Z,11.46
2018-01-10T11:15:30.433Z,11.47
2018-01-10T11:20:31.754Z,11.66
2018-01-10T11:25:33.087Z,11.70
2018-01-10T11:30:34.417Z,11.79
2018-01-10T11:35:35.755Z,11.91
2018-01-10T11:40:38.010Z,11.90
2018-01-10T11:45:39.388Z,11.93
2018-01-10T11:50:41.224Z,12.15
2018-01-10T11:55:43.335Z,12.46
2018-01-10T12:00:44.687Z,12.56
2018-01-10T12:05:46.019Z,12.73
2018-01-10T12:10:47.328Z,12.71
2018-01-10T12:15:49.462Z,12.85
2018-01-10T12:20:50.827Z,12.83
2018-01-10T12:25:53.027Z,12.79
2018-01-10T12:30:54.367Z,12.76
2018-01-10T12:35:56.223Z,12.79
2018-01-10T12:40:58.546Z,12.63
2018-01-10T12:46:00.280Z,12.60
2018-01-10T12:51:01.636Z,12.70
2018-01-10T12:56:03.879Z,12.55
2018-01-10T13:01:05.451Z,12.49
2018-01-10T13:06:07.508Z,12.44
2018-01-10T13:11:09.136Z,12.39
2018-01-10T13:16:10.915Z,12.40
2018-01-10T13:21:13.417Z,12.43
2018-01-10T13:26:14.755Z,12.62
2018-01-10T13:31:16.121Z,12.77
2018-01-10T13:36:17.448Z,12.72
2018-01-10T13:41:18.902Z,12.56
2018-01-10T13:46:20.279Z,12.44
2018-01-10T13:51:21.645Z,12.37
2018-01-10T13:56:23.061Z,12.27
2018-01-10T14:01:24.413Z,12.17
2018-01-10T14:06:26.088Z,12.19
2018-01-10T14:11:27.466Z,12.22
2018-01-10T14:16:29.807Z,12.16
2018-01-10T14:21:31.375Z,12.03
2018-01-10T14:26:33.444Z,12.05
2018-01-10T14:31:34.771Z,12.14
2018-01-10T14:36:36.820Z,12.30
2018-01-10T14:41:38.131Z,12.23
2018-01-10T14:46:39.771Z,12.18
2018-01-10T14:51:41.833Z,12.10
2018-01-10T14:56:43.182Z,11.97
2018-01-10T15:01:44.504Z,11.93
2018-01-10T15:06:45.849Z,11.86
2018-01-10T15:11:47.935Z,11.78
2018-01-10T15:16:50.033Z,11.55
2018-01-10T15:21:51.408Z,11.34
2018-01-10T15:26:52.723Z,11.23
2018-01-10T15:31:54.033Z,11.03
2018-01-10T15:36:56.220Z,11.01
2018-01-10T15:41:58.300Z,10.92
2018-01-10T15:46:59.619Z,10.82
2018-01-10T15:52:02.025Z,10.93
2018-01-10T15:57:03.366Z,10.93
2018-01-10T16:02:04.711Z,10.92
2018-01-10T16:07:06.033Z,10.76
2018-01-10T16:12:07.333Z,10.76
2018-01-10T16:17:08.730Z,10.70
2018-01-10T16:22:10.048Z,10.48
2018-01-10T16:27:11.363Z,10.29
2018-01-10T16:32:13.440Z,9.94
2018-01-10T16:37:14.907Z,9.91
2018-01-10T16:42:16.219Z,9.83
2018-01-10T16:47:17.563Z,9.94
2018-01-10T16:52:18.936Z,9.93
2018-01-10T16:57:20.365Z,10.06
2018-01-10T17:02:21.831Z,10.20
2018-01-10T17:07:23.239Z,10.11
2018-01-10T17:12:24.578Z,10.07
2018-01-10T17:17:25.879Z,10.00
2018-01-10T17:22:27.952Z,10.07
2018-01-10T17:27:29.282Z,9.94
2018-01-10T17:32:31.335Z,9.90
2018-01-10T17:37:32.662Z,10.02
2018-01-10T17:42:33.992Z,10.04
2018-01-10T17:47:35.329Z,9.96
2018-01-10T17:52:36.653Z,9.96
2018-01-10T17:57:37.971Z,10.05
2018-01-10T18:02:39.358Z,10.22
2018-01-10T18:07:40.680Z,10.29
2018-01-10T18:12:42.039Z,10.22
2018-01-10T18:17:43.387Z,10.10
2018-01-10T18:22:45.474Z,9.93
2018-01-10T18:27:46.785Z,9.79
2018-01-10T18:32:48.823Z,9.76
2018-01-10T18:37:50.157Z,9.32
2018-01-10T18:42:51.519Z,9.23
2018-01-10T18:47:52.851Z,9.18
2018-01-10T18:52:54.184Z,9.57
2018-01-10T18:57:55.517Z,9.80
2018-01-10T19:02:56.982Z,9.93
2018-01-10T19:07:58.370Z,9.93
2018-01-10T19:12:59.672Z,9.92
2018-01-10T19:18:01.912Z,9.92
2018-01-10T19:23:03.320Z,9.84
2018-01-10T19:28:05.392Z,9.69
2018-01-10T19:33:06.708Z,9.65
2018-01-10T19:38:08.847Z,9.64
2018-01-10T19:43:10.299Z,9.58
2018-01-10T19:48:11.629Z,9.52
2018-01-10T19:53:13.866Z,9.52
2018-01-10T19:58:15.237Z,9.52
2018-01-10T20:03:16.607Z,9.52
2018-01-10T20:08:17.987Z,9.49
2018-01-10T20:13:21.210Z,9.24
2018-01-10T20:18:23.626Z,9.22
2018-01-10T20:23:25.061Z,9.19
2018-01-10T20:28:26.436Z,8.95
2018-01-10T20:33:27.848Z,8.59
2018-01-10T20:38:29.202Z,8.34
2018-01-10T20:43:31.940Z,8.26
2018-01-10T20:48:33.301Z,7.92
2018-01-10T20:53:35.386Z,7.72
2018-01-10T20:58:36.850Z,7.84
2018-01-10T21:03:38.411Z,7.98
2018-01-10T21:08:40.467Z,7.94
2018-01-10T21:13:41.823Z,7.78
2018-01-10T21:18:43.120Z,7.63
2018-01-10T21:23:44.477Z,7.44
2018-01-10T21:28:46.523Z,7.32
2018-01-10T21:33:47.915Z,7.06
2018-01-10T21:38:49.226Z,6.86
2018-01-10T21:43:51.596Z,6.73
2018-01-10T21:48:53.032Z,6.76
2018-01-10T21:53:54.407Z,6.84
2018-01-10T21:58:55.733Z,6.85
2018-01-10T22:03:57.329Z,6.79
2018-01-10T22:08:58.715Z,6.77
2018-01-10T22:14:00.039Z,6.75
2018-01-10T22:19:01.404Z,6.70
2018-01-10T22:24:07.679Z,6.63
2018-01-10T22:29:09.109Z,6.60
2018-01-10T22:34:12.172Z,6.51
2018-01-10T22:39:13.505Z,6.42
2018-01-10T22:44:14.887Z,6.33
2018-01-10T22:49:16.304Z,6.31
2018-01-10T22:54:18.397Z,6.00
2018-01-10T22:59:19.723Z,5.77
2018-01-10T23:04:21.072Z,5.91
2018-01-10T23:09:24.563Z,5.96
2018-01-10T23:19:42.571Z,5.72
2018-01-10T23:24:43.987Z,5.54
2018-01-10T23:29:45.289Z,5.36
2018-01-10T23:34:46.606Z,5.31
2018-01-10T23:39:47.912Z,5.44
2018-01-10T23:44:49.212Z,5.54
2018-01-10T23:49:50.514Z,5.41
2018-01-10T23:54:52.559Z,5.45
2018-01-10T23:59:53.851Z,5.60
